Time;durP1;ratioP1;P1;durP2;ratioP2;P2;SDS_P1;SDS_P2;PMS_P1;PMS_P2;Temp;Humidity;BMP_temperature;BMP_pressure;BME280_temperature;BME280_humidity;BME280_pressure;Samples;Min_cycle;Max_cycle;Signal;HPM_P1;HPM_P2
2023/10/16 00:02:27;;;;;;;1.30;1.20;;;;;;;8.94;64.25;99887.56;4461298;32;34216;-82
2023/10/16 00:04:56;;;;;;;1.50;1.40;;;;;;;8.95;63.92;99903.94;4461639;32;33658;-81
2023/10/16 00:07:27;;;;;;;1.15;1.08;;;;;;;9.14;63.24;99910.78;4476132;32;33602;-81
2023/10/16 00:09:56;;;;;;;1.87;1.73;;;;;;;9.00;63.33;99917.72;4467187;32;33907;-81
2023/10/16 00:12:29;;;;;;;0.98;0.98;;;;;;;8.92;63.69;99919.47;4467601;32;33911;-80
2023/10/16 00:14:59;;;;;;;1.60;1.30;;;;;;;9.13;63.11;99923.69;4464641;32;34462;-80
2023/10/16 00:17:31;;;;;;;2.28;1.45;;;;;;;9.37;62.50;99935.69;4477009;32;33802;-82
2023/10/16 00:20:00;;;;;;;0.95;0.95;;;;;;;9.43;61.86;99934.81;4466526;32;82375;-82
2023/10/16 00:22:30;;;;;;;1.95;1.30;;;;;;;9.46;62.11;99930.47;4477759;32;33936;-83
2023/10/16 00:25:00;;;;;;;2.65;1.45;;;;;;;9.79;60.64;99931.19;4469771;32;33616;-81
2023/10/16 00:27:29;;;;;;;1.80;1.37;;;;;;;9.47;61.72;99933.91;4466555;32;33251;-80
2023/10/16 00:29:59;;;;;;;1.10;1.00;;;;;;;10.07;59.67;99931.81;4474080;32;33412;-82
2023/10/16 00:32:30;;;;;;;1.95;0.95;;;;;;;10.02;59.90;99936.19;4464112;32;32348;-81
2023/10/16 00:35:00;;;;;;;1.23;1.12;;;;;;;10.07;59.68;99931.81;4468360;32;34357;-81
2023/10/16 00:37:31;;;;;;;0.90;0.90;;;;;;;9.53;62.65;99937.34;4469610;32;34585;-81
2023/10/16 00:40:02;;;;;;;0.90;0.90;;;;;;;9.31;62.97;99933.16;4460638;32;33674;-81
2023/10/16 00:42:43;;;;;;;1.52;1.30;;;;;;;9.40;62.60;99931.38;4461062;32;33783;-82
2023/10/16 00:45:12;;;;;;;1.10;1.00;;;;;;;9.71;62.06;99915.69;4468755;32;34335;-81
2023/10/16 00:47:43;;;;;;;4.47;1.45;;;;;;;10.25;59.40;99926.50;4482627;32;34449;-81
2023/10/16 00:50:14;;;;;;;1.23;1.12;;;;;;;10.07;59.43;99925.78;4475232;32;33563;-82
2023/10/16 00:52:43;;;;;;;1.15;1.05;;;;;;;9.90;60.26;99928.50;4470298;32;32866;-82
2023/10/16 00:55:12;;;;;;;1.25;1.10;;;;;;;10.09;59.99;99931.81;4471565;32;33464;-82
2023/10/16 00:57:43;;;;;;;1.45;1.05;;;;;;;9.94;60.22;99928.47;4471891;32;34447;-82
2023/10/16 01:00:16;;;;;;;2.03;1.83;;;;;;;10.25;59.34;99933.44;4471663;32;34653;-82
2023/10/16 01:02:46;;;;;;;2.17;1.05;;;;;;;9.96;60.32;99920.69;4474320;32;33593;-82
2023/10/16 01:05:23;;;;;;;1.83;1.20;;;;;;;10.34;58.72;99920.44;4476782;32;33090;-80
2023/10/16 01:07:52;;;;;;;1.67;1.02;;;;;;;10.13;59.23;99921.44;4474406;32;34534;-81
2023/10/16 01:10:22;;;;;;;1.58;1.15;;;;;;;9.43;62.14;99927.91;4481739;32;33478;-82
2023/10/16 01:12:55;;;;;;;1.42;1.12;;;;;;;10.02;58.66;99925.81;4470300;32;33030;-81
2023/10/16 01:15:25;;;;;;;1.62;1.00;;;;;;;9.78;59.24;99938.06;4468381;32;33946;-82
2023/10/16 01:17:55;;;;;;;1.30;1.17;;;;;;;9.72;59.43;99934.66;4476456;32;33610;-82
2023/10/16 01:20:25;;;;;;;1.00;1.00;;;;;;;9.58;59.70;99926.97;4481676;32;33562;-81
2023/10/16 01:22:54;;;;;;;1.83;1.05;;;;;;;9.54;59.50;99938.19;4476531;32;33392;-80
2023/10/16 01:25:24;;;;;;;1.10;1.05;;;;;;;9.24;60.38;99936.62;4475905;32;33571;-82
2023/10/16 01:27:54;;;;;;;1.23;1.05;;;;;;;9.35;60.47;99942.59;4461054;32;33613;-81
2023/10/16 01:30:26;;;;;;;1.10;1.00;;;;;;;9.24;61.16;99947.84;4471359;32;33529;-82
2023/10/16 01:32:55;;;;;;;1.52;1.23;;;;;;;9.14;60.77;99951.31;4482103;32;32609;-80
2023/10/16 01:35:24;;;;;;;1.10;1.10;;;;;;;9.62;59.77;99954.59;4476206;32;33657;-81
2023/10/16 01:37:53;;;;;;;1.30;1.20;;;;;;;9.57;59.30;99964.97;4476193;32;33611;-81
2023/10/16 01:40:25;;;;;;;1.10;1.08;;;;;;;9.58;59.11;99964.09;4469779;32;34376;-80
2023/10/16 01:42:55;;;;;;;;;;;;;;;9.12;60.38;99959.09;4466654;32;32505;-82
2023/10/16 01:45:26;;;;;;;1.12;1.02;;;;;;;9.06;60.22;99966.88;4460286;32;34362;-80
2023/10/16 01:47:56;;;;;;;1.20;1.10;;;;;;;8.76;61.17;99966.06;4475634;32;33923;-82
2023/10/16 01:50:27;;;;;;;1.15;1.08;;;;;;;9.19;59.85;99967.69;4476095;32;33718;-81
2023/10/16 01:52:56;;;;;;;1.15;1.10;;;;;;;9.32;59.23;99961.59;4476142;32;34296;-82
2023/10/16 01:55:27;;;;;;;1.30;1.20;;;;;;;8.80;60.60;99961.75;4469011;32;34592;-82
2023/10/16 01:57:59;;;;;;;;;;;;;;;8.90;60.45;99962.59;4460985;32;34250;-81
2023/10/16 02:00:34;;;;;;;3.12;1.20;;;;;;;9.18;60.14;99971.13;4463594;32;33809;-81
2023/10/16 02:03:08;;;;;;;1.00;1.00;;;;;;;8.93;60.40;99962.59;4475061;32;33399;-81
2023/10/16 02:05:41;;;;;;;1.30;1.20;;;;;;;9.19;59.28;99965.13;4463002;32;33313;-83
2023/10/16 02:08:12;;;;;;;1.10;1.10;;;;;;;9.40;58.46;99975.41;4465556;32;33700;-82
2023/10/16 02:10:43;;;;;;;1.48;1.20;;;;;;;9.08;59.06;99985.84;4463620;32;33709;-81
2023/10/16 02:13:12;;;;;;;;;;;;;;;9.23;58.87;99994.44;4476548;32;34020;-80
2023/10/16 02:15:42;;;;;;;1.30;1.20;;;;;;;9.37;58.51;99992.66;4463308;32;34054;-81
2023/10/16 02:18:22;;;;;;;1.52;1.23;;;;;;;8.81;59.67;99991.94;4468009;32;33784;-81
2023/10/16 02:20:54;;;;;;;1.27;1.17;;;;;;;9.13;59.33;99991.88;4472091;32;34208;-81
2023/10/16 02:23:26;;;;;;;1.10;1.00;;;;;;;8.75;60.50;99997.97;4459942;32;33209;-83
2023/10/16 02:25:56;;;;;;;1.25;1.23;;;;;;;9.28;59.37;100000.44;4460403;32;34335;-81
2023/10/16 02:28:25;;;;;;;2.33;2.17;;;;;;;9.51;58.00;100019.38;4460155;32;33823;-80
2023/10/16 02:30:56;;;;;;;1.42;1.12;;;;;;;9.03;59.09;100005.69;4472234;32;33076;-82
2023/10/16 02:33:35;;;;;;;1.20;1.10;;;;;;;9.09;59.10;100004.84;4459424;32;33903;-82
2023/10/16 02:36:07;;;;;;;1.35;1.17;;;;;;;8.88;59.64;100004.00;4459330;32;34135;-80
2023/10/16 02:38:36;;;;;;;1.10;1.00;;;;;;;8.71;60.21;100006.59;4466170;32;34965;-82
2023/10/16 02:41:07;;;;;;;1.27;1.17;;;;;;;8.28;61.60;99996.19;4470686;32;34514;-82
2023/10/16 02:43:37;;;;;;;1.35;1.10;;;;;;;8.25;61.70;99993.63;4465091;32;34016;-82
2023/10/16 02:46:08;;;;;;;1.00;1.00;;;;;;;8.22;61.77;99990.19;4467918;32;32267;-82
2023/10/16 02:48:38;;;;;;;1.30;1.20;;;;;;;8.16;62.22;99983.25;4459700;32;34702;-82
2023/10/16 02:51:07;;;;;;;1.83;1.58;;;;;;;8.28;62.04;99988.44;4467990;32;33694;-82
2023/10/16 02:53:37;;;;;;;3.92;1.30;;;;;;;7.90;62.86;99990.97;4471197;32;33010;-82
2023/10/16 02:56:09;;;;;;;1.20;1.10;;;;;;;8.14;62.55;99992.72;4460604;32;33534;-81
2023/10/16 02:58:42;;;;;;;1.33;1.05;;;;;;;8.28;62.23;99990.19;4462067;32;34508;-82
2023/10/16 03:01:18;;;;;;;2.72;1.45;;;;;;;8.30;62.12;99997.06;4467193;32;33699;-80
2023/10/16 03:03:48;;;;;;;1.42;1.30;;;;;;;8.04;62.71;99998.75;4459696;32;32986;-81
2023/10/16 03:06:18;;;;;;;1.15;1.10;;;;;;;8.34;62.00;100008.28;4468310;32;33350;-80
2023/10/16 03:08:49;;;;;;;3.08;1.83;;;;;;;8.01;62.66;100009.94;4467092;32;33645;-81
2023/10/16 03:11:21;;;;;;;1.62;1.48;;;;;;;8.18;62.13;100017.72;4465792;32;33503;-82
2023/10/16 03:13:50;;;;;;;1.10;1.00;;;;;;;8.37;61.93;100023.78;4461967;32;33792;-80
2023/10/16 03:16:23;;;;;;;0.95;0.95;;;;;;;8.16;63.14;100036.69;4476165;32;34312;-82
2023/10/16 03:19:03;;;;;;;1.00;1.00;;;;;;;8.47;61.98;100032.44;4480599;32;33771;-81
2023/10/16 03:21:34;;;;;;;1.37;1.27;;;;;;;8.78;60.86;100022.97;4461577;32;34493;-81
2023/10/16 03:24:04;;;;;;;1.20;1.10;;;;;;;8.75;60.85;100034.19;4465724;32;32502;-82
2023/10/16 03:26:34;;;;;;;1.65;1.20;;;;;;;8.67;61.23;100027.28;4476344;32;33891;-82
2023/10/16 03:29:04;;;;;;;2.00;1.47;;;;;;;8.79;60.69;100029.84;4471479;32;33136;-80
2023/10/16 03:31:36;;;;;;;1.17;1.10;;;;;;;8.54;61.31;100023.84;4462667;32;35361;-80
2023/10/16 03:34:08;;;;;;;1.23;1.12;;;;;;;8.54;61.64;100034.19;4470051;32;33753;-79
2023/10/16 03:36:39;;;;;;;1.60;1.30;;;;;;;8.40;62.23;100046.22;4461256;32;34102;-83
2023/10/16 03:39:15;;;;;;;1.90;1.20;;;;;;;8.52;62.26;100049.69;4464507;32;33889;-81
2023/10/16 03:41:49;;;;;;;1.17;1.08;;;;;;;8.66;62.31;100060.06;4478365;32;33410;-82
2023/10/16 03:44:18;;;;;;;;;;;;;;;8.69;62.09;100060.03;4465662;32;33754;-81
2023/10/16 03:46:49;;;;;;;0.98;0.98;;;;;;;8.79;61.43;100060.91;4471774;32;34179;-81
2023/10/16 03:49:18;;;;;;;1.10;1.00;;;;;;;8.65;61.55;100060.94;4461882;32;33999;-81
2023/10/16 03:51:48;;;;;;;1.15;1.05;;;;;;;8.38;62.39;100060.84;4468784;32;34199;-81
2023/10/16 03:54:27;;;;;;;1.10;1.10;;;;;;;8.48;62.10;100063.50;4468900;32;32402;-81
2023/10/16 03:57:00;;;;;;;1.20;1.10;;;;;;;8.67;61.73;100050.56;4470641;32;34537;-81
2023/10/16 03:59:29;;;;;;;1.58;1.40;;;;;;;8.26;62.46;100046.16;4465377;32;33784;-82
2023/10/16 04:02:00;;;;;;;1.25;1.15;;;;;;;8.27;62.61;100048.78;4464682;32;33655;-81
2023/10/16 04:04:29;;;;;;;4.78;1.70;;;;;;;8.09;63.36;100049.59;4468168;32;33932;-81
2023/10/16 04:06:58;;;;;;;1.33;1.23;;;;;;;8.15;62.88;100047.88;4477126;32;33596;-81
2023/10/16 04:09:33;;;;;;;0.90;0.90;;;;;;;7.96;63.65;100041.81;4471991;32;34448;-81
2023/10/16 04:12:06;;;;;;;1.40;1.30;;;;;;;7.83;63.93;100044.34;4478392;32;34534;-81
2023/10/16 04:14:49;;;;;;;1.37;1.27;;;;;;;7.77;64.33;100041.72;4471107;32;33699;-81
2023/10/16 04:17:18;;;;;;;1.50;1.40;;;;;;;7.39;65.38;100046.72;4468280;32;34169;-81
2023/10/16 04:22:44;;;;;;;1.70;1.60;;;;;;;7.38;65.62;100039.84;4460223;32;33215;-81
2023/10/16 04:25:19;;;;;;;1.40;1.30;;;;;;;7.68;64.45;100033.94;4461476;32;33461;-81
2023/10/16 04:28:08;;;;;;;2.17;1.48;;;;;;;7.61;64.91;100037.34;4464974;32;34550;-80
2023/10/16 04:30:39;;;;;;;2.10;1.60;;;;;;;7.52;65.34;100034.75;4466200;32;33697;-80
2023/10/16 04:33:23;;;;;;;;;;;;;;;7.65;64.63;100039.97;4474762;32;33877;-80
2023/10/16 04:36:49;;;;;;;1.45;1.35;;;;;;;7.40;65.85;100041.56;4470725;32;33691;-81
2023/10/16 04:38:56;;;;;;;6.22;1.35;;;;;;;7.48;66.08;100050.19;4460773;32;34025;-81
2023/10/16 04:44:36;;;;;;;1.55;1.40;;;;;;;7.69;64.92;100048.59;4460984;32;33915;-80
2023/10/16 04:47:06;;;;;;;2.20;1.73;;;;;;;7.63;65.28;100044.25;4460631;32;33966;-82
2023/10/16 04:49:38;;;;;;;1.10;1.10;;;;;;;7.87;64.48;100046.06;4466654;32;34636;-81
2023/10/16 04:52:14;;;;;;;1.40;1.30;;;;;;;7.79;64.53;100042.59;4473067;32;33647;-81
2023/10/16 04:54:59;;;;;;;1.40;1.30;;;;;;;7.68;65.17;100031.34;4468961;32;33563;-82
2023/10/16 04:57:47;;;;;;;2.45;2.17;;;;;;;7.39;66.00;100033.81;4465343;32;32990;-81
2023/10/16 05:03:23;;;;;;;1.85;1.27;;;;;;;7.34;65.87;100031.19;4463567;32;34933;-81
2023/10/16 05:06:04;;;;;;;5.03;1.40;;;;;;;6.90;67.52;100024.06;4460251;32;33711;-79
2023/10/16 05:08:59;;;;;;;3.20;2.05;;;;;;;6.98;67.27;100025.00;4476826;32;33147;-82
2023/10/16 05:11:33;;;;;;;1.90;1.45;;;;;;;6.81;68.22;100029.12;4470349;32;34376;-81
2023/10/16 05:14:19;;;;;;;2.05;1.60;;;;;;;6.68;68.39;100027.34;4462603;32;34365;-81
2023/10/16 05:17:07;;;;;;;1.60;1.50;;;;;;;6.65;69.05;100035.06;4475108;32;34418;-80
2023/10/16 05:19:46;;;;;;;1.60;1.50;;;;;;;6.67;69.45;100041.94;4464869;32;34013;-80
2023/10/16 06:15:21;;;;;;;2.20;1.62;;;;;;;7.12;68.70;100099.88;4355178;32;34356;-82
2023/10/16 06:17:51;;;;;;;1.60;1.50;;;;;;;7.04;68.57;100104.13;4374021;32;33334;-80
2023/10/16 06:20:21;;;;;;;2.00;1.45;;;;;;;7.06;68.29;100102.44;4365270;32;33191;-79
2023/10/16 06:22:52;;;;;;;2.22;1.50;;;;;;;7.15;67.72;100107.66;4369610;32;32927;-80
2023/10/16 06:25:28;;;;;;;2.25;1.35;;;;;;;7.22;67.67;100112.00;4386126;32;33046;-80
2023/10/16 06:28:08;;;;;;;1.58;1.25;;;;;;;7.13;67.75;100116.22;4380433;32;33279;-81
2023/10/16 06:30:39;;;;;;;1.30;1.20;;;;;;;7.23;67.52;100113.72;4380352;32;33786;-80
2023/10/16 06:33:08;;;;;;;2.62;1.40;;;;;;;7.19;67.26;100105.94;4405023;32;33750;-81
2023/10/16 06:35:38;;;;;;;1.95;1.58;;;;;;;7.12;67.82;100114.50;4428470;32;32904;-80
2023/10/16 06:38:11;;;;;;;3.95;1.40;;;;;;;7.16;67.66;100124.00;4420371;32;33784;-81
2023/10/16 06:40:40;;;;;;;1.80;1.45;;;;;;;7.36;67.27;100131.87;4427295;32;33382;-80
2023/10/16 06:43:13;;;;;;;4.07;1.42;;;;;;;7.56;66.08;100139.75;4429014;32;33955;-80
2023/10/16 06:45:53;;;;;;;1.27;1.17;;;;;;;7.67;65.46;100141.53;4467278;32;33027;-81
2023/10/16 06:48:22;;;;;;;2.35;1.50;;;;;;;7.42;66.31;100147.41;4478218;32;34296;-82
2023/10/16 06:50:54;;;;;;;1.83;1.35;;;;;;;7.22;67.68;100155.87;4466482;32;34426;-80
2023/10/16 06:53:24;;;;;;;1.30;1.20;;;;;;;7.68;65.95;100155.31;4469682;32;33687;-80
2023/10/16 06:55:53;;;;;;;1.40;1.30;;;;;;;7.80;65.99;100159.69;4470712;32;32436;-81
2023/10/16 06:58:22;;;;;;;2.30;1.48;;;;;;;8.23;64.67;100167.66;4470791;32;33804;-81
2023/10/16 07:00:53;;;;;;;1.35;1.25;;;;;;;8.39;63.99;100164.28;4472062;32;34148;-81
2023/10/16 07:03:23;;;;;;;1.35;1.25;;;;;;;8.26;64.26;100165.06;4465277;32;33925;-80
2023/10/16 07:05:51;;;;;;;1.42;1.30;;;;;;;8.63;63.06;100165.25;4469438;32;33304;-80
2023/10/16 07:08:22;;;;;;;8.23;1.55;;;;;;;8.43;63.72;100170.34;4462765;32;34338;-81
2023/10/16 07:10:55;;;;;;;1.85;1.45;;;;;;;8.39;63.34;100172.03;4472250;32;34041;-81
2023/10/16 07:13:31;;;;;;;1.62;1.25;;;;;;;8.60;62.28;100175.56;4468944;32;34380;-82
2023/10/16 07:16:01;;;;;;;1.55;1.23;;;;;;;8.42;63.01;100178.97;4465978;32;33100;-81
2023/10/16 07:18:33;;;;;;;1.60;1.40;;;;;;;8.25;63.63;100169.37;4467662;32;33499;-80
2023/10/16 07:21:08;;;;;;;1.45;1.17;;;;;;;8.22;63.28;100184.03;4473379;32;34923;-81
2023/10/16 07:23:38;;;;;;;2.12;1.55;;;;;;;8.27;63.55;100178.00;4474461;32;34835;-81
2023/10/16 07:26:10;;;;;;;1.37;1.27;;;;;;;8.54;63.36;100179.84;4474169;31;32687;-80
2023/10/16 07:28:39;;;;;;;3.15;1.20;;;;;;;8.78;62.24;100180.78;4469549;32;34027;-80
2023/10/16 07:31:10;;;;;;;1.27;1.17;;;;;;;8.82;62.49;100184.22;4466936;32;33032;-82
2023/10/16 07:33:42;;;;;;;2.05;1.58;;;;;;;9.21;61.33;100190.34;4467633;32;33661;-82
2023/10/16 07:36:13;;;;;;;1.08;1.02;;;;;;;9.12;61.42;100188.59;4473673;32;33100;-82
2023/10/16 07:38:42;;;;;;;1.00;1.00;;;;;;;9.21;61.11;100196.37;4466296;32;33409;-82
2023/10/16 07:41:18;;;;;;;1.37;1.27;;;;;;;9.31;61.00;100202.41;4464050;32;33708;-81
2023/10/16 07:43:47;;;;;;;1.73;1.30;;;;;;;9.55;60.33;100204.97;4467971;32;33472;-81
2023/10/16 07:46:28;;;;;;;1.70;1.15;;;;;;;9.68;59.38;100208.41;4475685;32;33749;-80
2023/10/16 07:49:01;;;;;;;1.30;1.20;;;;;;;9.38;59.83;100220.53;4473978;32;34245;-81
2023/10/16 07:51:31;;;;;;;1.20;1.10;;;;;;;9.63;59.17;100212.75;4474591;32;34593;-82
2023/10/16 07:54:00;;;;;;;0.90;0.90;;;;;;;9.87;58.30;100217.03;4477100;32;33609;-81
2023/10/16 07:56:32;;;;;;;1.95;1.30;;;;;;;10.08;58.24;100208.34;4476814;32;34183;-80
2023/10/16 07:59:09;;;;;;;1.10;1.00;;;;;;;9.93;57.43;100213.56;4475009;32;34686;-81
2023/10/16 08:01:43;;;;;;;1.42;1.33;;;;;;;9.98;56.98;100204.91;4473723;32;34798;-82
2023/10/16 08:04:34;;;;;;;0.90;0.90;;;;;;;9.70;57.50;100209.28;4468211;32;33865;-80
2023/10/16 08:07:10;;;;;;;1.00;1.00;;;;;;;9.90;56.95;100211.84;4464891;32;32929;-80
2023/10/16 08:10:28;;;;;;;1.85;1.00;;;;;;;9.76;57.09;100205.81;4463732;32;34131;-82
2023/10/16 08:12:47;;;;;;;1.23;1.12;;;;;;;9.98;56.75;100196.28;4473852;32;34439;-80
2023/10/16 08:15:21;;;;;;;3.47;1.25;;;;;;;9.97;56.68;100197.13;4470410;32;34235;-81
2023/10/16 08:17:51;;;;;;;1.80;1.37;;;;;;;10.14;55.48;100191.91;4470546;32;33714;-80
2023/10/16 08:20:21;;;;;;;1.00;1.00;;;;;;;9.96;56.96;100185.91;4465647;32;33527;-81
2023/10/16 08:22:50;;;;;;;2.00;1.25;;;;;;;10.63;55.09;100194.31;4472036;32;35221;-81
2023/10/16 08:25:31;;;;;;;0.98;0.98;;;;;;;10.41;54.62;100202.22;4468645;32;34714;-81
2023/10/16 08:28:19;;;;;;;;;;;;;;;10.21;54.50;100197.06;4471631;32;33272;-80
2023/10/16 08:30:52;;;;;;;1.45;1.05;;;;;;;10.35;55.11;100202.22;4477592;32;33968;-81
2023/10/16 08:33:30;;;;;;;0.90;0.90;;;;;;;10.43;53.81;100207.38;4463223;32;33550;-81
2023/10/16 08:35:59;;;;;;;1.17;1.08;;;;;;;10.41;54.80;100202.22;4464387;32;33355;-80
2023/10/16 08:38:32;;;;;;;4.70;1.00;;;;;;;10.49;53.33;100201.31;4468261;32;33003;-81
2023/10/16 08:41:07;;;;;;;0.80;0.80;;;;;;;10.32;53.86;100202.25;4471023;32;33683;-81
2023/10/16 08:43:53;;;;;;;0.88;0.88;;;;;;;10.42;53.41;100203.94;4474355;32;33998;-82
2023/10/16 08:46:30;;;;;;;1.77;1.10;;;;;;;10.40;53.70;100199.63;4474891;32;33751;-80
2023/10/16 08:49:02;;;;;;;2.30;1.45;;;;;;;10.49;53.18;100198.72;4467546;32;34476;-80
2023/10/16 08:51:31;;;;;;;1.30;1.17;;;;;;;10.67;51.38;100207.25;4476432;32;34494;-81
2023/10/16 08:54:03;;;;;;;1.25;1.20;;;;;;;10.52;51.76;100206.50;4471190;32;34760;-81
2023/10/16 08:56:32;;;;;;;1.30;1.20;;;;;;;10.66;51.12;100208.12;4468311;32;32905;-81
2023/10/16 08:59:04;;;;;;;1.62;0.93;;;;;;;10.71;50.63;100192.56;4461060;32;32950;-82
2023/10/16 09:01:33;;;;;;;1.08;0.93;;;;;;;10.34;51.00;100202.22;4464193;32;33848;-81
2023/10/16 09:04:06;;;;;;;0.98;0.98;;;;;;;10.39;50.81;100190.09;4467489;32;33610;-80
2023/10/16 09:06:37;;;;;;;1.35;1.00;;;;;;;10.77;50.59;100202.87;4477105;32;34003;-81
2023/10/16 09:09:13;;;;;;;0.88;0.88;;;;;;;10.25;50.21;100193.59;4464862;32;32394;-82
2023/10/16 09:11:45;;;;;;;1.15;1.00;;;;;;;10.57;50.37;100195.22;4460912;32;33610;-82
2023/10/16 09:14:17;;;;;;;0.95;0.95;;;;;;;10.55;49.83;100207.31;4472949;32;34759;-80
2023/10/16 09:16:48;;;;;;;4.80;1.27;;;;;;;10.96;49.41;100203.63;4470672;32;33878;-82
2023/10/16 09:19:18;;;;;;;3.13;0.90;;;;;;;11.01;49.14;100206.19;4471192;32;32538;-80
2023/10/16 09:21:52;;;;;;;1.27;1.10;;;;;;;10.80;49.76;100210.66;4464247;32;34373;-80
2023/10/16 09:24:24;;;;;;;0.90;0.90;;;;;;;11.07;48.17;100207.03;4460378;32;33765;-82
2023/10/16 09:26:54;;;;;;;0.90;0.90;;;;;;;11.09;48.45;100202.69;4462349;32;33787;-81
2023/10/16 09:29:26;;;;;;;1.17;1.08;;;;;;;11.10;47.62;100211.34;4461007;32;31517;-81
2023/10/16 09:31:55;;;;;;;1.55;1.10;;;;;;;11.10;47.68;100207.00;4471952;32;33796;-80
2023/10/16 09:34:27;;;;;;;0.85;0.85;;;;;;;11.04;47.61;100209.66;4476119;32;34700;-81
2023/10/16 09:39:40;;;;;;;1.10;1.00;;;;;;;10.78;47.27;100201.16;4475455;32;33123;-80
2023/10/16 09:42:12;;;;;;;1.30;0.90;;;;;;;11.06;47.05;100187.13;4472149;32;33853;-81
2023/10/16 09:44:55;;;;;;;2.55;1.27;;;;;;;11.12;46.02;100182.78;4472997;32;35284;-81
2023/10/16 09:47:30;;;;;;;0.90;0.90;;;;;;;10.96;46.65;100182.00;4468225;32;33544;-81
2023/10/16 09:50:00;;;;;;;1.75;0.90;;;;;;;10.93;46.79;100169.91;4463386;32;33480;-81
2023/10/16 09:52:32;;;;;;;1.12;1.08;;;;;;;11.24;46.34;100172.28;4461433;32;33473;-81
2023/10/16 09:55:05;;;;;;;1.10;1.00;;;;;;;11.19;45.93;100174.91;4462794;32;34460;-81
2023/10/16 09:57:35;;;;;;;0.80;0.80;;;;;;;11.28;46.84;100164.47;4481568;32;34355;-81
2023/10/16 10:00:28;;;;;;;1.23;1.12;;;;;;;11.21;46.85;100151.50;4472355;32;34139;-81
2023/10/16 10:03:02;;;;;;;0.80;0.80;;;;;;;11.42;47.60;100166.91;4476260;32;34520;-80
2023/10/16 10:05:35;;;;;;;1.60;1.48;;;;;;;11.37;47.18;100163.50;4470384;32;35349;-79
2023/10/16 10:08:15;;;;;;;0.98;0.98;;;;;;;11.29;47.77;100158.38;4461479;32;33627;-81
2023/10/16 10:14:09;;;;;;;0.88;0.88;;;;;;;11.27;47.93;100169.66;4473377;32;34178;-82
2023/10/16 10:16:45;;;;;;;3.78;0.90;;;;;;;11.28;47.64;100158.38;4466857;32;34125;-81
2023/10/16 10:19:24;;;;;;;0.80;0.80;;;;;;;11.50;47.97;100159.03;4466273;32;33773;-80
2023/10/16 10:21:54;;;;;;;0.90;0.90;;;;;;;11.67;47.49;100151.09;4465346;32;33253;-82
2023/10/16 10:24:24;;;;;;;1.02;0.93;;;;;;;11.78;48.15;100162.25;4470765;32;33401;-81
2023/10/16 10:26:55;;;;;;;0.80;0.80;;;;;;;11.93;46.74;100159.50;4477221;32;33113;-82
2023/10/16 10:29:25;;;;;;;0.80;0.80;;;;;;;11.88;46.26;100153.50;4461867;32;34043;-81
2023/10/16 10:31:56;;;;;;;1.00;0.90;;;;;;;11.96;46.01;100153.44;4464473;32;33934;-82
2023/10/16 10:34:27;;;;;;;1.00;1.00;;;;;;;12.16;46.25;100158.38;4477542;32;34666;-81
2023/10/16 10:36:58;;;;;;;1.35;0.90;;;;;;;11.78;46.56;100144.03;4475724;32;33618;-82
2023/10/16 10:39:43;;;;;;;1.00;0.90;;;;;;;11.78;46.62;100140.59;4483181;32;34604;-81
2023/10/16 10:47:43;;;;;;;1.35;0.93;;;;;;;12.36;46.11;100127.75;4462388;32;33812;-80
2023/10/16 10:50:15;;;;;;;0.90;0.90;;;;;;;12.48;45.75;100112.88;4476113;32;33802;-82
2023/10/16 10:52:46;;;;;;;0.73;0.73;;;;;;;12.29;44.92;100105.31;4482210;32;32761;-80
2023/10/16 10:55:21;;;;;;;1.15;0.98;;;;;;;11.96;44.72;100104.03;4461842;32;34497;-80
2023/10/16 10:58:00;;;;;;;2.22;1.00;;;;;;;12.21;44.87;100101.97;4461950;32;34551;-80
2023/10/16 11:00:44;;;;;;;1.20;0.90;;;;;;;12.13;44.88;100098.63;4460765;32;33893;-82
2023/10/16 11:03:31;;;;;;;2.60;1.00;;;;;;;12.53;45.00;100090.25;4460652;32;33803;-80
2023/10/16 11:06:00;;;;;;;0.90;0.80;;;;;;;12.60;44.27;100090.12;4461099;32;34509;-82
2023/10/16 11:08:33;;;;;;;0.73;0.73;;;;;;;12.33;43.42;100094.00;4467138;32;34652;-82
2023/10/16 11:11:05;;;;;;;1.00;0.90;;;;;;;12.52;43.74;100088.53;4476162;32;33587;-81
2023/10/16 11:13:37;;;;;;;0.75;0.75;;;;;;;12.28;44.93;100090.59;4476263;32;32819;-82
2023/10/16 11:16:09;;;;;;;1.30;0.95;;;;;;;12.52;44.56;100088.53;4477209;32;33074;-81
2023/10/16 11:18:40;;;;;;;0.75;0.75;;;;;;;12.52;44.86;100096.34;4477390;32;33852;-82
2023/10/16 11:21:11;;;;;;;1.45;1.08;;;;;;;12.86;42.93;100095.81;4482695;32;34400;-81
2023/10/16 11:23:42;;;;;;;1.17;1.00;;;;;;;12.94;42.76;100093.94;4477216;32;33577;-81
2023/10/16 11:26:13;;;;;;;1.42;0.88;;;;;;;12.88;43.27;100084.50;4477078;32;34548;-82
2023/10/16 11:28:48;;;;;;;0.70;0.70;;;;;;;12.75;43.00;100091.63;4477077;32;33254;-82
2023/10/16 11:31:19;;;;;;;1.83;1.23;;;;;;;12.59;42.34;100091.00;4482930;32;33415;-81
2023/10/16 11:34:03;;;;;;;4.03;0.90;;;;;;;13.00;41.13;100092.09;4477278;32;33366;-82
2023/10/16 11:36:34;;;;;;;1.23;0.95;;;;;;;12.79;41.73;100087.25;4477170;32;33939;-82
2023/10/16 11:39:11;;;;;;;1.40;1.00;;;;;;;12.66;41.08;100089.19;4476928;32;33939;-80
2023/10/16 11:41:41;;;;;;;1.17;0.90;;;;;;;12.52;41.81;100086.78;4477796;32;33880;-81
2023/10/16 11:44:14;;;;;;;1.27;1.17;;;;;;;12.78;42.40;100080.31;4482673;32;32506;-80
2023/10/16 11:46:46;;;;;;;3.60;0.88;;;;;;;12.77;41.97;100081.19;4464548;32;34540;-82
2023/10/16 11:49:29;;;;;;;0.75;0.75;;;;;;;12.86;41.56;100082.81;4461276;32;33677;-82
2023/10/16 11:52:08;;;;;;;0.77;0.77;;;;;;;12.95;41.21;100087.84;4461213;32;33481;-82
2023/10/16 11:54:40;;;;;;;0.70;0.70;;;;;;;13.03;41.12;100084.22;4461246;32;33791;-81
2023/10/16 11:57:13;;;;;;;0.90;0.90;;;;;;;12.98;42.47;100083.44;4462561;32;34946;-83
2023/10/16 11:59:42;;;;;;;1.00;0.90;;;;;;;13.39;41.69;100068.88;4467213;32;32987;-81
2023/10/16 12:02:12;;;;;;;0.80;0.80;;;;;;;13.32;41.23;100072.47;4461323;32;33702;-81
2023/10/16 12:04:42;;;;;;;0.65;0.65;;;;;;;13.30;40.78;100070.78;4462340;32;33862;-80
2023/10/16 12:07:13;;;;;;;1.17;0.90;;;;;;;13.34;40.32;100075.06;4474334;32;33120;-81
2023/10/16 12:09:47;;;;;;;0.70;0.70;;;;;;;13.32;40.50;100066.41;4471563;32;33712;-82
2023/10/16 12:12:20;;;;;;;0.85;0.75;;;;;;;13.41;40.58;100072.31;4476990;32;33698;-81
2023/10/16 12:14:50;;;;;;;2.40;1.73;;;;;;;13.40;39.58;100069.72;4474548;32;33504;-82
2023/10/16 12:17:20;;;;;;;0.70;0.70;;;;;;;13.38;38.97;100077.56;4466025;32;33561;-81
2023/10/16 12:19:51;;;;;;;0.70;0.70;;;;;;;13.31;39.01;100075.94;4468131;32;33599;-82
2023/10/16 12:22:21;;;;;;;0.88;0.80;;;;;;;13.11;39.55;100065.84;4468497;32;33809;-82
2023/10/16 12:24:51;;;;;;;3.17;0.73;;;;;;;13.22;39.18;100058.72;4461004;32;32966;-81
2023/10/16 12:27:21;;;;;;;2.75;1.20;;;;;;;13.54;39.33;100061.66;4461378;32;33873;-81
2023/10/16 12:29:49;;;;;;;0.93;0.73;;;;;;;13.33;40.05;100063.75;4461476;32;33833;-81
2023/10/16 12:32:18;;;;;;;0.82;0.80;;;;;;;13.18;39.61;100059.66;4466717;32;34180;-82
2023/10/16 12:34:49;;;;;;;1.20;0.82;;;;;;;13.41;38.43;100061.03;4463607;32;33092;-82
2023/10/16 12:37:22;;;;;;;;;;;;;;;13.41;39.12;100074.06;4477034;32;33693;-82
2023/10/16 12:39:52;;;;;;;0.70;0.70;;;;;;;13.43;40.10;100070.53;4465657;32;34835;-81
2023/10/16 12:42:22;;;;;;;0.70;0.70;;;;;;;13.51;40.34;100062.56;4470925;32;33919;-81
2023/10/16 12:44:51;;;;;;;0.70;0.70;;;;;;;13.78;39.72;100060.31;4475332;32;34084;-82
2023/10/16 12:47:20;;;;;;;0.60;0.60;;;;;;;13.96;39.74;100061.66;4465605;32;33825;-83
2023/10/16 12:50:11;;;;;;;1.62;0.90;;;;;;;13.77;40.14;100059.44;4473462;32;34316;-81
2023/10/16 12:52:44;;;;;;;0.60;0.60;;;;;;;13.97;38.91;100058.19;4470239;32;33571;-82
2023/10/16 12:55:13;;;;;;;0.65;0.65;;;;;;;13.72;38.39;100061.25;4467927;32;33226;-82
2023/10/16 12:57:48;;;;;;;0.85;0.70;;;;;;;13.77;38.06;100067.28;4471668;32;33541;-81
2023/10/16 13:00:19;;;;;;;2.40;0.80;;;;;;;13.96;37.28;100067.72;4467944;32;34160;-81
2023/10/16 13:02:50;;;;;;;0.90;0.77;;;;;;;14.02;37.84;100058.94;4468405;32;33246;-82
2023/10/16 13:05:24;;;;;;;0.73;0.73;;;;;;;13.92;37.91;100063.50;4475451;32;33623;-81
2023/10/16 13:07:56;;;;;;;0.90;0.85;;;;;;;13.59;38.50;100063.28;4472259;32;34072;-81
2023/10/16 13:10:27;;;;;;;0.80;0.70;;;;;;;14.05;37.74;100058.88;4473615;32;33826;-81
2023/10/16 13:12:56;;;;;;;0.70;0.70;;;;;;;13.74;37.53;100051.66;4473116;32;35146;-81
2023/10/16 13:15:29;;;;;;;0.62;0.62;;;;;;;13.84;37.99;100041.91;4471795;32;32997;-81